Time;durP1;ratioP1;P1;durP2;ratioP2;P2;SDS_P1;SDS_P2;PMS_P1;PMS_P2;Temp;Humidity;BMP_temperature;BMP_pressure;BME280_temperature;BME280_humidity;BME280_pressure;Samples;Min_cycle;Max_cycle;Signal;HPM_P1;HPM_P2
2022/08/21 00:01:16;;;;;;;0.73;0.45;;;19.40;99.90;;;;;;4447348;32;20130;-70
2022/08/21 00:03:41;;;;;;;0.57;0.57;;;19.40;99.90;;;;;;4450253;32;20064;-70
2022/08/21 00:06:07;;;;;;;0.75;0.68;;;19.30;99.90;;;;;;4443503;32;20084;-70
2022/08/21 00:08:33;;;;;;;7.03;0.45;;;19.30;99.90;;;;;;4450807;32;20144;-70
2022/08/21 00:10:58;;;;;;;0.47;0.47;;;19.20;99.90;;;;;;4449848;32;20068;-70
2022/08/21 00:13:24;;;;;;;0.68;0.60;;;19.20;99.90;;;;;;4447705;32;20081;-70
2022/08/21 00:15:50;;;;;;;0.57;0.57;;;19.20;99.90;;;;;;4446699;32;20064;-70
2022/08/21 00:18:17;;;;;;;0.40;0.40;;;19.20;99.90;;;;;;4443915;32;20077;-70
2022/08/21 00:20:43;;;;;;;0.50;0.50;;;19.20;99.90;;;;;;4447485;32;21419;-70
2022/08/21 00:23:10;;;;;;;1.55;0.93;;;19.20;99.90;;;;;;4448465;32;20239;-70
2022/08/21 00:25:36;;;;;;;0.57;0.57;;;19.10;99.90;;;;;;4448147;32;20077;-70
2022/08/21 00:28:02;;;;;;;0.40;0.40;;;19.10;99.90;;;;;;4448532;32;20072;-70
2022/08/21 00:30:28;;;;;;;0.47;0.47;;;19.10;99.90;;;;;;4446269;32;20804;-70
2022/08/21 00:32:55;;;;;;;0.45;0.45;;;19.00;99.90;;;;;;4448661;32;20590;-70
2022/08/21 00:35:26;;;;;;;5.18;0.60;;;19.00;99.90;;;;;;4445104;32;20054;-70
2022/08/21 00:37:52;;;;;;;0.50;0.50;;;19.10;99.90;;;;;;4448325;32;20061;-70
2022/08/21 00:40:26;;;;;;;1.35;0.88;;;19.10;99.90;;;;;;4450027;32;20078;-70
2022/08/21 00:42:52;;;;;;;2.47;0.60;;;19.10;99.90;;;;;;4447135;32;20064;-70
2022/08/21 00:45:18;;;;;;;0.52;0.52;;;19.00;99.90;;;;;;4448152;32;20506;-70
2022/08/21 00:47:43;;;;;;;1.83;1.23;;;19.10;99.90;;;;;;4446121;32;20408;-70
2022/08/21 00:50:10;;;;;;;0.47;0.47;;;19.10;99.90;;;;;;4448382;32;20638;-70
2022/08/21 00:52:37;;;;;;;0.50;0.50;;;19.10;99.90;;;;;;4450471;32;20068;-70
2022/08/21 00:55:07;;;;;;;0.52;0.52;;;19.00;99.90;;;;;;4447804;32;20522;-69
2022/08/21 00:57:39;;;;;;;2.00;0.95;;;19.00;99.90;;;;;;4448628;32;20126;-70
2022/08/21 01:00:08;;;;;;;0.40;0.40;;;19.00;99.90;;;;;;4449283;32;20069;-70
2022/08/21 01:02:34;;;;;;;1.15;0.90;;;19.00;99.90;;;;;;4448283;32;20120;-70
2022/08/21 01:04:59;;;;;;;0.50;0.50;;;19.00;99.90;;;;;;4444414;32;20085;-70
2022/08/21 01:07:25;;;;;;;1.00;0.70;;;19.00;99.90;;;;;;4444866;32;20580;-70
2022/08/21 01:09:51;;;;;;;1.37;0.65;;;18.90;99.90;;;;;;4447321;32;20128;-70
2022/08/21 01:12:18;;;;;;;0.57;0.57;;;18.90;99.90;;;;;;4448600;32;20085;-70
2022/08/21 01:14:44;;;;;;;0.50;0.50;;;18.90;99.90;;;;;;4449783;32;20081;-70
2022/08/21 01:17:12;;;;;;;1.05;0.55;;;18.80;99.90;;;;;;4446835;32;20571;-70
2022/08/21 01:19:38;;;;;;;3.20;1.33;;;18.80;99.90;;;;;;4449203;32;20111;-70
2022/08/21 01:22:04;;;;;;;0.40;0.40;;;18.80;99.90;;;;;;4447740;32;20090;-71
2022/08/21 01:24:31;;;;;;;0.50;0.50;;;18.80;99.90;;;;;;4446571;32;20404;-70
2022/08/21 01:26:57;;;;;;;0.50;0.50;;;18.80;99.90;;;;;;4446281;32;20523;-70
2022/08/21 01:29:36;;;;;;;0.52;0.52;;;18.70;99.90;;;;;;4449516;32;20068;-70
2022/08/21 01:32:08;;;;;;;0.57;0.57;;;18.80;99.90;;;;;;4438311;32;20088;-70
2022/08/21 01:34:37;;;;;;;0.52;0.52;;;18.80;99.90;;;;;;4452822;32;20552;-70
2022/08/21 01:37:03;;;;;;;1.17;0.80;;;18.80;99.90;;;;;;4443238;32;20499;-70
2022/08/21 01:39:29;;;;;;;5.37;0.65;;;18.80;99.90;;;;;;4448785;32;20510;-70
2022/08/21 01:41:54;;;;;;;0.40;0.40;;;18.70;99.90;;;;;;4446364;32;20097;-70
2022/08/21 01:44:21;;;;;;;2.83;0.50;;;18.80;99.90;;;;;;4449555;32;20085;-70
2022/08/21 01:46:47;;;;;;;0.40;0.40;;;18.80;99.90;;;;;;4448172;32;20082;-70
2022/08/21 01:49:13;;;;;;;3.33;0.75;;;18.80;99.90;;;;;;4450065;32;20141;-70
2022/08/21 01:51:39;;;;;;;0.50;0.50;;;18.80;99.90;;;;;;4449502;32;20089;-70
2022/08/21 01:54:04;;;;;;;0.40;0.40;;;18.80;99.90;;;;;;4448133;32;20410;-70
2022/08/21 01:56:44;;;;;;;1.75;0.50;;;18.80;99.90;;;;;;4448711;32;20093;-70
2022/08/21 01:59:10;;;;;;;0.65;0.62;;;18.80;99.90;;;;;;4451970;32;20523;-70
2022/08/21 02:01:36;;;;;;;0.32;0.32;;;18.80;99.90;;;;;;4449197;32;20076;-70
2022/08/21 02:04:02;;;;;;;0.50;0.50;;;18.70;99.90;;;;;;4451001;32;20082;-70
2022/08/21 02:06:27;;;;;;;1.77;0.75;;;18.70;99.90;;;;;;4447275;32;20073;-70
2022/08/21 02:08:53;;;;;;;1.15;0.62;;;18.60;99.90;;;;;;4451386;32;20484;-70
2022/08/21 02:11:19;;;;;;;0.37;0.37;;;18.50;99.90;;;;;;4449704;32;20474;-70
2022/08/21 02:13:44;;;;;;;1.65;0.62;;;18.50;99.90;;;;;;4451298;32;20476;-70
2022/08/21 02:16:10;;;;;;;0.50;0.50;;;18.40;99.90;;;;;;4450125;32;20064;-70
2022/08/21 02:18:36;;;;;;;0.20;0.20;;;18.40;99.90;;;;;;4453883;32;20065;-70
2022/08/21 02:21:03;;;;;;;1.17;0.50;;;18.40;99.90;;;;;;4450917;32;20073;-70
2022/08/21 02:23:29;;;;;;;0.57;0.57;;;18.30;99.90;;;;;;4447558;32;20160;-70
2022/08/21 02:25:57;;;;;;;0.40;0.40;;;18.30;99.90;;;;;;4448394;32;20060;-70
2022/08/21 02:28:22;;;;;;;0.43;0.43;;;18.30;99.90;;;;;;4449151;32;20085;-70
2022/08/21 02:30:49;;;;;;;0.40;0.40;;;18.20;99.90;;;;;;4448630;32;20101;-70
2022/08/21 02:33:15;;;;;;;0.47;0.40;;;18.20;99.90;;;;;;4449196;32;20092;-69
2022/08/21 02:35:43;;;;;;;1.37;0.77;;;18.10;99.90;;;;;;4447366;32;20612;-69
2022/08/21 02:38:13;;;;;;;0.60;0.60;;;18.20;99.90;;;;;;4447341;32;20073;-70
2022/08/21 02:40:41;;;;;;;0.60;0.52;;;18.20;99.90;;;;;;4449999;32;20069;-69
2022/08/21 02:43:07;;;;;;;29.75;0.98;;;18.20;99.90;;;;;;4449442;32;20073;-69
2022/08/21 02:45:34;;;;;;;0.40;0.40;;;18.20;99.90;;;;;;4450222;32;20097;-69
2022/08/21 02:48:03;;;;;;;0.50;0.50;;;18.20;99.90;;;;;;4448574;32;20073;-69
2022/08/21 02:50:33;;;;;;;1.98;1.45;;;18.20;99.90;;;;;;4450560;32;20064;-70
2022/08/21 02:52:59;;;;;;;0.37;0.37;;;18.10;99.90;;;;;;4450392;32;20104;-69
2022/08/21 02:55:28;;;;;;;1.17;0.55;;;18.10;99.90;;;;;;4447201;32;20131;-69
2022/08/21 02:57:55;;;;;;;0.47;0.47;;;18.10;99.90;;;;;;4450721;32;20241;-70
2022/08/21 03:00:22;;;;;;;0.60;0.60;;;18.00;99.90;;;;;;4451700;32;20086;-69
2022/08/21 03:02:48;;;;;;;1.02;1.00;;;18.00;99.90;;;;;;4447986;32;20198;-69
2022/08/21 03:05:15;;;;;;;0.40;0.40;;;18.10;99.90;;;;;;4444754;32;20069;-69
2022/08/21 03:07:42;;;;;;;0.47;0.47;;;18.00;99.90;;;;;;4445834;32;20685;-70
2022/08/21 03:10:08;;;;;;;0.60;0.50;;;18.00;99.90;;;;;;4447438;32;20073;-70
2022/08/21 03:12:36;;;;;;;0.52;0.52;;;17.90;99.90;;;;;;4447365;32;20146;-70
2022/08/21 03:15:04;;;;;;;0.40;0.40;;;17.90;99.90;;;;;;4449862;32;20068;-70
2022/08/21 03:17:29;;;;;;;0.90;0.50;;;17.80;99.90;;;;;;4447635;32;20062;-69
2022/08/21 03:19:55;;;;;;;0.40;0.40;;;17.80;99.90;;;;;;4449430;32;20100;-69
2022/08/21 03:22:20;;;;;;;0.65;0.43;;;17.80;99.90;;;;;;4448372;32;20118;-70
2022/08/21 03:24:46;;;;;;;0.40;0.40;;;17.80;99.90;;;;;;4447180;32;20068;-70
2022/08/21 03:27:12;;;;;;;0.40;0.40;;;17.70;99.90;;;;;;4447562;32;20096;-70
2022/08/21 03:29:38;;;;;;;1.80;0.73;;;17.70;99.90;;;;;;4449861;32;20081;-70
2022/08/21 03:32:04;;;;;;;0.50;0.50;;;17.60;99.90;;;;;;4447147;32;20474;-70
2022/08/21 03:34:30;;;;;;;0.45;0.45;;;17.50;99.90;;;;;;4449368;32;20109;-70
2022/08/21 03:36:55;;;;;;;0.45;0.45;;;17.50;99.90;;;;;;4448244;32;20065;-69
2022/08/21 03:39:21;;;;;;;0.40;0.40;;;17.60;99.90;;;;;;4448325;32;20065;-70
2022/08/21 03:41:47;;;;;;;1.75;1.00;;;17.50;99.90;;;;;;4448788;32;20084;-69
2022/08/21 03:44:13;;;;;;;0.47;0.47;;;17.60;99.90;;;;;;4449100;32;20073;-69
2022/08/21 03:46:39;;;;;;;0.30;0.30;;;17.60;99.90;;;;;;4446989;32;20509;-69
2022/08/21 03:49:06;;;;;;;0.40;0.40;;;17.50;99.90;;;;;;4443413;32;20058;-69
2022/08/21 03:51:33;;;;;;;0.47;0.47;;;17.50;99.90;;;;;;4451122;32;20097;-69
2022/08/21 03:53:59;;;;;;;0.52;0.52;;;17.50;99.90;;;;;;4448719;32;20105;-70
2022/08/21 03:56:24;;;;;;;0.40;0.40;;;17.50;99.90;;;;;;4445588;32;20833;-70
2022/08/21 03:58:50;;;;;;;0.40;0.40;;;17.40;99.90;;;;;;4449590;32;20073;-70
2022/08/21 04:01:15;;;;;;;0.30;0.30;;;17.40;99.90;;;;;;4446616;32;20106;-69
2022/08/21 04:03:41;;;;;;;0.37;0.37;;;17.40;99.90;;;;;;4447988;32;20504;-69
2022/08/21 04:06:07;;;;;;;0.80;0.50;;;17.40;99.90;;;;;;4443573;32;20078;-70
2022/08/21 04:08:32;;;;;;;0.40;0.40;;;17.40;99.90;;;;;;4445234;32;20096;-69
2022/08/21 04:10:58;;;;;;;0.45;0.45;;;17.40;99.90;;;;;;4449241;32;20068;-70
2022/08/21 04:13:24;;;;;;;0.40;0.40;;;17.40;99.90;;;;;;4448945;32;20216;-69
2022/08/21 04:15:50;;;;;;;0.57;0.57;;;17.40;99.90;;;;;;4445895;32;20596;-69
2022/08/21 04:18:15;;;;;;;0.47;0.47;;;17.30;99.90;;;;;;4450767;32;20056;-69
2022/08/21 04:20:43;;;;;;;0.30;0.30;;;17.30;99.90;;;;;;4448748;32;20068;-69
2022/08/21 04:23:08;;;;;;;0.70;0.70;;;17.30;99.90;;;;;;4446521;32;20105;-70
2022/08/21 04:25:34;;;;;;;0.50;0.50;;;17.20;99.90;;;;;;4449179;32;20065;-70
2022/08/21 04:27:59;;;;;;;0.52;0.52;;;17.20;99.90;;;;;;4448980;32;20127;-70
2022/08/21 04:30:25;;;;;;;0.37;0.37;;;17.20;99.90;;;;;;4447012;32;20084;-69
2022/08/21 04:32:51;;;;;;;0.40;0.40;;;17.20;99.90;;;;;;4449050;32;20064;-69
2022/08/21 04:35:21;;;;;;;0.45;0.45;;;17.30;99.90;;;;;;4447568;32;20096;-70
2022/08/21 04:37:47;;;;;;;0.62;0.62;;;17.30;99.90;;;;;;4446279;32;20061;-70
2022/08/21 04:40:16;;;;;;;0.55;0.55;;;17.30;99.90;;;;;;4451327;32;20104;-70
2022/08/21 04:42:45;;;;;;;0.73;0.45;;;17.20;99.90;;;;;;4452774;32;20060;-70
2022/08/21 04:45:33;;;;;;;4.45;0.68;;;17.20;99.90;;;;;;4450736;32;20068;-70
2022/08/21 04:48:01;;;;;;;0.35;0.35;;;17.30;99.90;;;;;;4445795;32;20072;-70
2022/08/21 04:50:35;;;;;;;0.40;0.40;;;17.30;99.90;;;;;;4451259;32;20127;-70
2022/08/21 04:53:01;;;;;;;1.45;1.08;;;17.40;99.90;;;;;;4449000;32;20073;-69
2022/08/21 04:55:27;;;;;;;0.45;0.45;;;17.30;99.90;;;;;;4449014;32;20528;-70
2022/08/21 04:57:54;;;;;;;0.77;0.60;;;17.30;99.90;;;;;;4447544;32;20109;-70
2022/08/21 05:00:22;;;;;;;0.40;0.40;;;17.40;99.90;;;;;;4446442;32;20072;-69
2022/08/21 05:02:48;;;;;;;1.55;0.40;;;17.40;99.90;;;;;;4447464;32;20134;-69
2022/08/21 05:05:14;;;;;;;5.87;0.70;;;17.50;99.90;;;;;;4447510;32;20085;-69
2022/08/21 05:07:42;;;;;;;5.60;1.12;;;17.40;99.90;;;;;;4443239;32;20494;-69
2022/08/21 05:10:10;;;;;;;0.57;0.57;;;17.30;99.90;;;;;;4448285;32;20096;-70
2022/08/21 05:12:35;;;;;;;0.47;0.47;;;17.40;99.90;;;;;;4448499;32;20089;-70
2022/08/21 05:15:01;;;;;;;0.40;0.40;;;17.50;99.90;;;;;;4450285;32;20566;-70
2022/08/21 05:17:26;;;;;;;1.67;0.82;;;17.50;99.90;;;;;;4449097;32;20081;-70
2022/08/21 05:19:52;;;;;;;1.75;0.50;;;17.50;99.90;;;;;;4448870;32;20077;-70
2022/08/21 05:22:20;;;;;;;1.05;0.68;;;17.50;99.90;;;;;;4443629;32;20143;-70
2022/08/21 05:24:46;;;;;;;1.45;0.90;;;17.50;99.90;;;;;;4445712;32;20068;-70
2022/08/21 05:27:11;;;;;;;0.40;0.40;;;17.60;99.90;;;;;;4446317;32;20533;-70
2022/08/21 05:29:37;;;;;;;4.22;0.60;;;17.60;99.90;;;;;;4445336;32;20086;-70
2022/08/21 05:32:09;;;;;;;0.90;0.90;;;17.60;99.90;;;;;;4449202;32;20141;-70
2022/08/21 05:34:35;;;;;;;0.30;0.30;;;17.50;99.90;;;;;;4444500;32;20119;-70
2022/08/21 05:37:01;;;;;;;0.47;0.47;;;17.50;99.90;;;;;;4445576;32;20077;-70
2022/08/21 05:39:26;;;;;;;0.52;0.52;;;17.40;99.90;;;;;;4448594;32;20138;-70
2022/08/21 05:41:51;;;;;;;0.75;0.40;;;17.40;99.90;;;;;;4451245;32;20168;-70
2022/08/21 05:44:17;;;;;;;0.80;0.60;;;17.50;99.90;;;;;;4451783;32;20480;-70
2022/08/21 05:46:42;;;;;;;0.50;0.50;;;17.50;99.90;;;;;;4450434;32;20096;-70
2022/08/21 05:49:08;;;;;;;0.70;0.70;;;17.50;99.90;;;;;;4445039;32;20104;-70
2022/08/21 05:51:33;;;;;;;12.85;0.50;;;17.60;99.90;;;;;;4444008;32;20065;-70
2022/08/21 05:53:59;;;;;;;0.65;0.65;;;17.60;99.90;;;;;;4447185;32;20072;-70
2022/08/21 05:56:24;;;;;;;0.45;0.45;;;17.60;99.90;;;;;;4446035;32;20068;-70
2022/08/21 05:58:50;;;;;;;0.40;0.40;;;17.60;99.90;;;;;;4444688;32;20127;-70
2022/08/21 06:01:15;;;;;;;0.30;0.30;;;17.50;99.90;;;;;;4446757;32;20502;-70
2022/08/21 06:03:42;;;;;;;3.60;0.90;;;17.50;99.90;;;;;;4446426;32;20077;-70
2022/08/21 06:06:08;;;;;;;0.30;0.30;;;17.60;99.90;;;;;;4442805;32;20493;-70
2022/08/21 06:08:34;;;;;;;3.60;0.88;;;17.50;99.90;;;;;;4445062;32;20115;-70
2022/08/21 06:11:01;;;;;;;0.40;0.40;;;17.60;99.90;;;;;;4443894;32;20074;-70
2022/08/21 06:13:27;;;;;;;0.30;0.30;;;17.60;99.90;;;;;;4446535;32;20517;-71
2022/08/21 06:16:12;;;;;;;1.77;0.60;;;17.60;99.90;;;;;;4449042;32;20418;-70
2022/08/21 06:18:39;;;;;;;0.85;0.57;;;17.70;99.90;;;;;;4445113;32;20553;-70
2022/08/21 06:21:05;;;;;;;0.50;0.50;;;17.70;99.90;;;;;;4448933;32;20423;-70
2022/08/21 06:23:31;;;;;;;0.30;0.30;;;17.70;99.90;;;;;;4446125;32;20092;-70
2022/08/21 06:25:57;;;;;;;0.30;0.30;;;17.60;99.90;;;;;;4448741;32;20084;-70
2022/08/21 06:28:22;;;;;;;0.50;0.50;;;17.60;99.90;;;;;;4445266;32;20414;-70
2022/08/21 06:30:48;;;;;;;0.70;0.68;;;17.60;99.90;;;;;;4446023;32;20093;-70
2022/08/21 06:33:14;;;;;;;0.40;0.40;;;17.60;99.90;;;;;;4449751;32;20093;-71
2022/08/21 06:35:39;;;;;;;0.30;0.30;;;17.60;99.90;;;;;;4445838;32;20678;-70
2022/08/21 06:38:05;;;;;;;0.28;0.28;;;17.70;99.90;;;;;;4448012;32;20607;-70
2022/08/21 06:40:30;;;;;;;0.45;0.45;;;17.70;99.90;;;;;;4451831;32;20069;-70
2022/08/21 06:42:57;;;;;;;0.45;0.45;;;17.80;99.90;;;;;;4450251;32;20089;-70
2022/08/21 06:45:24;;;;;;;0.43;0.43;;;17.70;99.90;;;;;;4453992;32;20068;-70
2022/08/21 06:47:49;;;;;;;0.43;0.43;;;17.80;99.90;;;;;;4449918;32;20093;-70
2022/08/21 06:50:15;;;;;;;0.32;0.32;;;17.80;99.90;;;;;;4450766;32;20085;-70
2022/08/21 06:52:40;;;;;;;0.50;0.50;;;17.80;99.90;;;;;;4450353;32;20120;-70
2022/08/21 06:55:08;;;;;;;3.45;1.37;;;17.90;99.90;;;;;;4449448;32;20142;-69
2022/08/21 06:57:34;;;;;;;0.30;0.30;;;18.00;99.90;;;;;;4448677;32;20118;-70
2022/08/21 07:00:00;;;;;;;0.40;0.40;;;18.00;99.90;;;;;;4447531;32;20093;-70
2022/08/21 07:02:25;;;;;;;0.65;0.65;;;18.10;99.90;;;;;;4449493;32;20077;-70
2022/08/21 07:04:51;;;;;;;0.40;0.40;;;18.10;99.90;;;;;;4449760;32;20064;-70
2022/08/21 07:07:16;;;;;;;12.77;0.73;;;18.10;99.90;;;;;;4444405;32;20113;-70
2022/08/21 07:09:42;;;;;;;0.40;0.40;;;18.20;99.90;;;;;;4448577;32;20089;-70
2022/08/21 07:12:09;;;;;;;0.52;0.43;;;18.20;99.90;;;;;;4453223;32;20065;-70
2022/08/21 07:14:35;;;;;;;0.30;0.30;;;18.30;99.90;;;;;;4449286;32;20060;-70
2022/08/21 07:17:01;;;;;;;0.40;0.40;;;18.40;99.90;;;;;;4450404;32;20543;-70
2022/08/21 07:19:26;;;;;;;0.35;0.35;;;18.50;99.90;;;;;;4448611;32;20500;-70
2022/08/21 07:21:56;;;;;;;0.40;0.40;;;18.60;99.90;;;;;;4449761;32;20135;-70
2022/08/21 07:24:22;;;;;;;0.20;0.20;;;18.70;99.90;;;;;;4446330;32;20065;-71
2022/08/21 07:26:47;;;;;;;0.40;0.40;;;18.60;99.90;;;;;;4449930;32;20296;-70
2022/08/21 07:29:13;;;;;;;0.40;0.40;;;18.70;99.90;;;;;;4449464;32;20080;-71
2022/08/21 07:31:38;;;;;;;0.30;0.30;;;18.80;99.90;;;;;;4448628;32;20097;-71
2022/08/21 07:34:04;;;;;;;0.30;0.30;;;18.70;99.90;;;;;;4447708;32;20451;-71
2022/08/21 07:36:29;;;;;;;0.30;0.30;;;18.80;99.90;;;;;;4443915;32;20138;-70
2022/08/21 07:38:55;;;;;;;6.75;0.85;;;18.90;99.90;;;;;;4450434;32;20120;-71
2022/08/21 07:41:24;;;;;;;0.30;0.30;;;19.00;99.90;;;;;;4448240;32;20077;-71
2022/08/21 07:43:49;;;;;;;0.40;0.40;;;19.10;99.90;;;;;;4448580;32;20359;-71
2022/08/21 07:46:15;;;;;;;0.30;0.30;;;19.10;99.90;;;;;;4449910;32;20464;-71
2022/08/21 07:48:41;;;;;;;0.30;0.30;;;19.20;99.90;;;;;;4449135;32;20108;-71
2022/08/21 07:51:09;;;;;;;0.30;0.30;;;19.40;99.90;;;;;;4447691;32;20131;-71
2022/08/21 07:53:36;;;;;;;0.40;0.40;;;19.40;99.90;;;;;;4449602;32;20520;-71
2022/08/21 07:56:03;;;;;;;0.90;0.82;;;19.50;99.90;;;;;;4451038;32;20496;-71
2022/08/21 07:58:28;;;;;;;0.20;0.20;;;19.50;99.90;;;;;;4449280;32;20621;-71
2022/08/21 08:00:54;;;;;;;0.40;0.40;;;19.60;99.90;;;;;;4446974;32;20074;-71
2022/08/21 08:03:19;;;;;;;0.52;0.52;;;19.60;99.90;;;;;;4446528;32;20061;-71
2022/08/21 08:05:45;;;;;;;15.05;0.50;;;19.60;99.90;;;;;;4444949;32;20072;-71
2022/08/21 08:08:10;;;;;;;1.90;1.20;;;19.70;99.90;;;;;;4448841;32;20115;-71
2022/08/21 08:10:38;;;;;;;0.40;0.40;;;19.80;99.90;;;;;;4447290;32;20058;-70
2022/08/21 08:13:04;;;;;;;0.40;0.40;;;19.90;99.90;;;;;;4447790;32;20451;-71
2022/08/21 08:15:30;;;;;;;14.32;1.85;;;19.90;99.90;;;;;;4449164;32;20084;-71
2022/08/21 08:17:56;;;;;;;0.45;0.45;;;20.00;99.90;;;;;;4451348;32;20092;-71
2022/08/21 08:20:23;;;;;;;0.20;0.20;;;20.20;99.90;;;;;;4447466;32;20077;-71
2022/08/21 08:22:49;;;;;;;0.30;0.30;;;20.30;99.90;;;;;;4445719;32;20094;-71
2022/08/21 08:25:16;;;;;;;5.72;1.10;;;20.40;99.90;;;;;;4446983;32;21138;-71
2022/08/21 08:27:42;;;;;;;0.50;0.50;;;20.40;99.90;;;;;;4450477;32;20085;-71
2022/08/21 08:30:10;;;;;;;0.22;0.22;;;20.50;99.90;;;;;;4447230;32;20065;-71
2022/08/21 08:32:36;;;;;;;0.37;0.37;;;20.40;99.90;;;;;;4450696;32;105130;-71
2022/08/21 08:35:02;;;;;;;0.20;0.20;;;20.40;99.90;;;;;;4443739;32;21699;-71
2022/08/21 08:37:28;;;;;;;0.88;0.75;;;20.50;99.90;;;;;;4442774;32;20049;-71
2022/08/21 08:39:53;;;;;;;0.40;0.40;;;20.50;99.90;;;;;;4448186;32;20053;-71
2022/08/21 08:42:32;;;;;;;0.40;0.40;;;20.60;99.90;;;;;;4448380;32;20057;-71
2022/08/21 08:45:02;;;;;;;0.37;0.37;;;20.60;99.90;;;;;;4445232;32;20449;-71
2022/08/21 08:47:30;;;;;;;0.57;0.50;;;20.70;99.90;;;;;;4450695;32;20044;-71
2022/08/21 08:50:21;;;;;;;0.40;0.40;;;20.70;99.90;;;;;;4446851;32;20076;-71
2022/08/21 08:52:54;;;;;;;0.20;0.20;;;20.70;99.90;;;;;;4442681;32;20084;-71
2022/08/21 08:55:27;;;;;;;0.70;0.70;;;20.70;99.90;;;;;;4446935;32;20102;-71
2022/08/21 08:57:54;;;;;;;0.50;0.50;;;20.70;99.90;;;;;;4448808;32;20065;-71
2022/08/21 09:00:21;;;;;;;3.50;1.55;;;20.80;99.90;;;;;;4445825;32;20089;-71
2022/08/21 09:02:46;;;;;;;0.30;0.30;;;20.80;99.90;;;;;;4453280;32;20080;-71
2022/08/21 09:05:25;;;;;;;2.45;0.57;;;20.90;99.90;;;;;;4447161;32;20315;-71
2022/08/21 09:08:02;;;;;;;0.32;0.32;;;20.90;99.90;;;;;;4451081;32;20069;-71
2022/08/21 09:10:56;;;;;;;2.30;1.00;;;21.00;99.90;;;;;;4450851;32;20097;-71
2022/08/21 09:13:47;;;;;;;0.40;0.40;;;21.00;99.90;;;;;;4449060;32;20084;-71
2022/08/21 09:16:39;;;;;;;0.40;0.40;;;21.00;99.90;;;;;;4444431;32;20068;-71
2022/08/21 09:19:33;;;;;;;0.43;0.43;;;21.10;99.90;;;;;;4449405;32;20081;-71
2022/08/21 09:22:15;;;;;;;0.30;0.30;;;21.10;99.90;;;;;;4445628;32;20073;-71
2022/08/21 09:25:07;;;;;;;0.30;0.30;;;21.20;99.90;;;;;;4446242;32;20119;-71
2022/08/21 09:27:33;;;;;;;0.30;0.30;;;21.20;99.90;;;;;;4446894;32;20096;-71
2022/08/21 09:29:59;;;;;;;0.43;0.43;;;21.20;99.90;;;;;;4446994;32;20508;-71
2022/08/21 09:32:27;;;;;;;0.28;0.28;;;21.10;99.90;;;;;;4452312;32;20068;-71
2022/08/21 09:35:00;;;;;;;0.30;0.30;;;21.20;99.90;;;;;;4447158;32;20056;-71
2022/08/21 09:37:28;;;;;;;0.28;0.28;;;21.20;99.90;;;;;;4445307;32;20061;-71
2022/08/21 09:39:58;;;;;;;0.85;0.45;;;21.30;99.90;;;;;;4447137;32;20098;-71
2022/08/21 09:42:31;;;;;;;2.05;0.47;;;21.30;99.90;;;;;;4451377;32;20410;-71
2022/08/21 09:45:10;;;;;;;0.20;0.20;;;21.40;99.90;;;;;;4448481;32;20197;-71
2022/08/21 09:47:36;;;;;;;0.30;0.30;;;21.60;99.90;;;;;;4452682;32;20558;-71
2022/08/21 09:50:21;;;;;;;0.30;0.30;;;21.60;99.90;;;;;;4448813;32;20419;-71
2022/08/21 09:52:53;;;;;;;0.40;0.40;;;21.70;99.90;;;;;;4447957;32;20073;-71
2022/08/21 09:57:46;;;;;;;0.98;0.50;;;21.70;99.90;;;;;;4448354;32;20065;-71
2022/08/21 09:58:20;;;;;;;0.43;0.43;;;21.80;99.90;;;;;;4445911;32;20057;-71
2022/08/21 10:00:58;;;;;;;0.37;0.35;;;21.90;99.90;;;;;;4447427;32;20069;-71
2022/08/21 10:03:24;;;;;;;2.97;1.00;;;22.00;99.90;;;;;;4447715;32;20570;-71
2022/08/21 10:06:00;;;;;;;0.30;0.30;;;22.10;99.90;;;;;;4444153;32;20081;-71
2022/08/21 10:08:28;;;;;;;0.28;0.28;;;22.10;99.90;;;;;;4451952;32;20564;-71
2022/08/21 10:11:01;;;;;;;0.17;0.17;;;22.20;99.90;;;;;;4448837;32;20115;-71
2022/08/21 10:13:44;;;;;;;1.75;0.60;;;22.20;99.90;;;;;;4451394;32;20112;-70
2022/08/21 10:16:35;;;;;;;0.20;0.20;;;22.30;99.90;;;;;;4450485;32;20081;-71
2022/08/21 10:19:29;;;;;;;0.10;0.10;;;22.40;99.90;;;;;;4445022;32;20080;-71
2022/08/21 10:22:00;;;;;;;0.35;0.35;;;22.70;99.90;;;;;;4446639;32;20061;-71
2022/08/21 10:24:32;;;;;;;8.93;0.68;;;22.90;99.90;;;;;;4449521;32;20561;-71
2022/08/21 10:27:15;;;;;;;1.23;0.50;;;23.10;99.90;;;;;;4449875;32;20430;-71
2022/08/21 10:29:49;;;;;;;1.37;0.60;;;23.40;99.90;;;;;;4452185;32;20073;-70
2022/08/21 10:32:28;;;;;;;12.18;0.40;;;23.30;99.90;;;;;;4457388;32;20080;-71
2022/08/21 10:35:18;;;;;;;0.17;0.15;;;23.30;99.90;;;;;;4450137;32;20119;-70
2022/08/21 10:38:24;;;;;;;0.30;0.30;;;23.20;99.90;;;;;;4447909;32;20076;-70
2022/08/21 10:41:11;;;;;;;0.20;0.20;;;23.20;99.90;;;;;;4447491;32;20124;-71
2022/08/21 10:43:59;;;;;;;2.28;0.75;;;23.30;99.90;;;;;;4447726;32;20417;-71
2022/08/21 10:46:40;;;;;;;1.45;0.65;;;23.40;99.90;;;;;;4451891;32;20146;-70
2022/08/21 10:49:31;;;;;;;0.15;0.15;;;23.40;99.90;;;;;;4449148;32;20511;-71
2022/08/21 10:52:36;;;;;;;0.10;0.10;;;23.40;99.90;;;;;;4451806;32;20052;-71
2022/08/21 10:55:25;;;;;;;0.20;0.20;;;23.60;99.90;;;;;;4440791;32;20081;-70
2022/08/21 10:58:19;;;;;;;0.10;0.10;;;23.80;97.90;;;;;;4451097;32;20061;-71
2022/08/21 11:00:49;;;;;;;1.95;1.00;;;24.10;97.70;;;;;;4443213;32;20080;-70
2022/08/21 11:03:28;;;;;;;0.32;0.32;;;24.60;96.50;;;;;;4447257;32;20080;-70
2022/08/21 11:06:02;;;;;;;0.10;0.10;;;24.50;95.10;;;;;;4445600;32;20605;-71
2022/08/21 11:08:40;;;;;;;0.10;0.10;;;24.80;96.60;;;;;;4451738;32;20100;-71
2022/08/21 11:11:20;;;;;;;0.20;0.20;;;25.00;95.00;;;;;;4450229;32;20061;-71
2022/08/21 11:13:51;;;;;;;0.30;0.30;;;25.10;95.70;;;;;;4450558;32;20515;-71
2022/08/21 11:16:57;;;;;;;0.25;0.25;;;25.10;95.50;;;;;;4449997;32;20624;-71
2022/08/21 11:19:33;;;;;;;0.10;0.10;;;25.40;95.70;;;;;;4441710;32;20439;-71
2022/08/21 11:22:22;;;;;;;0.10;0.10;;;25.20;95.70;;;;;;4450511;32;20073;-71
2022/08/21 11:24:55;;;;;;;0.20;0.20;;;25.40;95.70;;;;;;4435146;32;20171;-71
2022/08/21 11:27:28;;;;;;;0.37;0.37;;;25.50;94.40;;;;;;4431406;32;20389;-70
2022/08/21 11:29:57;;;;;;;0.17;0.17;;;25.90;94.00;;;;;;4444935;32;20081;-70
2022/08/21 11:32:49;;;;;;;0.10;0.10;;;26.00;90.30;;;;;;4446786;32;20074;-71
2022/08/21 11:35:44;;;;;;;0.10;0.10;;;25.90;90.40;;;;;;4443923;32;20073;-71
2022/08/21 11:38:27;;;;;;;0.20;0.20;;;26.00;90.20;;;;;;4448493;32;20076;-71
2022/08/21 11:41:05;;;;;;;0.00;0.00;;;25.80;90.80;;;;;;4441992;32;20222;-70
2022/08/21 11:43:39;;;;;;;0.10;0.10;;;25.70;90.60;;;;;;4447229;32;20061;-70
2022/08/21 11:46:27;;;;;;;0.10;0.10;;;25.90;90.50;;;;;;4437589;32;20131;-70
2022/08/21 11:49:27;;;;;;;0.10;0.10;;;26.00;89.60;;;;;;4444416;32;20552;-70
2022/08/21 11:52:17;;;;;;;1.00;0.22;;;26.30;91.20;;;;;;4441036;32;20073;-70
2022/08/21 11:54:51;;;;;;;0.08;0.08;;;26.10;90.80;;;;;;4411717;32;20093;-70
2022/08/21 11:57:22;;;;;;;0.10;0.10;;;26.30;90.00;;;;;;4420210;32;20830;-70
2022/08/21 12:00:08;;;;;;;;;;;26.70;88.40;;;;;;4437392;32;20077;-70
2022/08/21 12:02:38;;;;;;;0.30;0.30;;;26.90;90.00;;;;;;4438758;32;19984;-70
2022/08/21 12:05:09;;;;;;;0.13;0.13;;;27.30;87.70;;;;;;4435163;32;20593;-70
2022/08/21 12:07:38;;;;;;;0.10;0.10;;;27.60;88.90;;;;;;4415212;32;20080;-70
2022/08/21 12:10:09;;;;;;;0.40;0.40;;;27.70;88.80;;;;;;4418197;32;20040;-70
2022/08/21 12:12:38;;;;;;;0.10;0.10;;;28.00;84.50;;;;;;4422108;32;20683;-70
2022/08/21 12:15:21;;;;;;;0.13;0.13;;;27.70;85.50;;;;;;4443702;32;20084;-70
2022/08/21 12:18:19;;;;;;;0.00;0.00;;;27.90;89.30;;;;;;4446487;32;20057;-70
2022/08/21 12:21:02;;;;;;;0.13;0.13;;;28.60;86.20;;;;;;4444659;32;20442;-70
2022/08/21 12:23:49;;;;;;;0.10;0.10;;;28.90;83.70;;;;;;4448095;32;20092;-70
2022/08/21 12:26:24;;;;;;;0.20;0.20;;;29.10;82.40;;;;;;4421872;32;21448;-70
2022/08/21 12:28:50;;;;;;;0.25;0.25;;;29.50;83.10;;;;;;4440683;32;20085;-70
2022/08/21 12:31:20;;;;;;;0.20;0.20;;;29.50;82.10;;;;;;4442518;32;20060;-70
2022/08/21 12:33:53;;;;;;;0.20;0.20;;;29.40;82.10;;;;;;4443572;32;20433;-69
2022/08/21 12:36:25;;;;;;;0.20;0.20;;;29.40;81.40;;;;;;4410489;32;20591;-70
2022/08/21 12:38:57;;;;;;;0.20;0.20;;;29.70;79.20;;;;;;4435541;32;20085;-70
2022/08/21 12:41:41;;;;;;;0.20;0.20;;;29.90;80.60;;;;;;4443970;32;20114;-70
2022/08/21 12:44:14;;;;;;;0.20;0.20;;;30.10;78.30;;;;;;4429547;32;20191;-69
2022/08/21 12:46:56;;;;;;;0.17;0.17;;;30.50;76.90;;;;;;4379207;32;20072;-69
2022/08/21 12:49:31;;;;;;;0.30;0.30;;;30.50;78.00;;;;;;4388432;32;20405;-69
2022/08/21 12:52:20;;;;;;;0.20;0.20;;;30.30;76.50;;;;;;4396299;32;20549;-70
2022/08/21 12:54:47;;;;;;;0.20;0.20;;;29.90;76.50;;;;;;4421188;32;20116;-69
2022/08/21 12:57:29;;;;;;;0.30;0.30;;;30.10;75.90;;;;;;4440630;32;20057;-69
2022/08/21 13:00:02;;;;;;;0.77;0.77;;;30.50;75.80;;;;;;4448772;32;20546;-69
2022/08/21 13:02:32;;;;;;;0.50;0.50;;;30.70;75.70;;;;;;4446704;32;20133;-69
2022/08/21 13:05:01;;;;;;;1.95;0.88;;;30.50;78.20;;;;;;4445862;32;20129;-69